sensor_id;sensor_type;location;lat;lon;timestamp;temperature;humidity
42097;DHT22;27754;45.414;11.084;2023-07-02T00:00:07;22.50;81.70
42097;DHT22;27754;45.414;11.084;2023-07-02T00:02:35;22.40;81.90
42097;DHT22;27754;45.414;11.084;2023-07-02T00:05:03;22.40;81.90
42097;DHT22;27754;45.414;11.084;2023-07-02T00:07:30;22.40;82.00
42097;DHT22;27754;45.414;11.084;2023-07-02T00:09:58;22.40;82.30
42097;DHT22;27754;45.414;11.084;2023-07-02T00:12:25;22.40;82.30
42097;DHT22;27754;45.414;11.084;2023-07-02T00:14:52;22.30;82.30
42097;DHT22;27754;45.414;11.084;2023-07-02T00:17:20;22.30;82.30
42097;DHT22;27754;45.414;11.084;2023-07-02T00:19:48;22.30;82.30
42097;DHT22;27754;45.414;11.084;2023-07-02T00:22:19;22.30;82.50
42097;DHT22;27754;45.414;11.084;2023-07-02T00:24:46;22.30;82.50
42097;DHT22;27754;45.414;11.084;2023-07-02T00:27:14;22.30;82.40
42097;DHT22;27754;45.414;11.084;2023-07-02T00:29:41;22.20;82.50
42097;DHT22;27754;45.414;11.084;2023-07-02T00:32:08;22.10;82.80
42097;DHT22;27754;45.414;11.084;2023-07-02T00:34:34;22.10;83.00
42097;DHT22;27754;45.414;11.084;2023-07-02T00:37:02;22.10;82.90
42097;DHT22;27754;45.414;11.084;2023-07-02T00:39:29;22.00;82.90
42097;DHT22;27754;45.414;11.084;2023-07-02T00:42:01;22.00;82.90
42097;DHT22;27754;45.414;11.084;2023-07-02T00:44:29;22.00;83.10
42097;DHT22;27754;45.414;11.084;2023-07-02T00:46:56;22.00;83.10
42097;DHT22;27754;45.414;11.084;2023-07-02T00:49:23;22.00;83.20
42097;DHT22;27754;45.414;11.084;2023-07-02T00:51:51;22.00;83.30
42097;DHT22;27754;45.414;11.084;2023-07-02T00:54:18;22.00;83.30
42097;DHT22;27754;45.414;11.084;2023-07-02T00:56:45;22.00;83.10
42097;DHT22;27754;45.414;11.084;2023-07-02T00:59:14;22.00;83.10
42097;DHT22;27754;45.414;11.084;2023-07-02T01:01:41;22.00;83.10
42097;DHT22;27754;45.414;11.084;2023-07-02T01:04:08;22.00;83.10
42097;DHT22;27754;45.414;11.084;2023-07-02T01:06:36;21.90;83.10
42097;DHT22;27754;45.414;11.084;2023-07-02T01:09:08;21.90;82.90
42097;DHT22;27754;45.414;11.084;2023-07-02T01:11:46;21.90;82.90
42097;DHT22;27754;45.414;11.084;2023-07-02T01:14:20;21.80;82.90
42097;DHT22;27754;45.414;11.084;2023-07-02T01:16:48;21.80;83.00
42097;DHT22;27754;45.414;11.084;2023-07-02T01:22:08;21.70;83.60
42097;DHT22;27754;45.414;11.084;2023-07-02T01:24:41;21.80;83.60
42097;DHT22;27754;45.414;11.084;2023-07-02T01:27:08;21.70;83.50
42097;DHT22;27754;45.414;11.084;2023-07-02T01:29:37;21.70;83.50
42097;DHT22;27754;45.414;11.084;2023-07-02T01:32:04;21.70;83.90
42097;DHT22;27754;45.414;11.084;2023-07-02T01:34:32;21.70;84.10
42097;DHT22;27754;45.414;11.084;2023-07-02T01:36:59;21.70;84.20
42097;DHT22;27754;45.414;11.084;2023-07-02T01:39:26;21.80;84.40
42097;DHT22;27754;45.414;11.084;2023-07-02T01:42:07;21.80;84.30
42097;DHT22;27754;45.414;11.084;2023-07-02T01:44:35;21.90;84.10
42097;DHT22;27754;45.414;11.084;2023-07-02T01:47:02;21.90;83.90
42097;DHT22;27754;45.414;11.084;2023-07-02T01:49:29;22.00;83.90
42097;DHT22;27754;45.414;11.084;2023-07-02T01:51:57;22.00;83.70
42097;DHT22;27754;45.414;11.084;2023-07-02T01:54:26;22.10;83.40
42097;DHT22;27754;45.414;11.084;2023-07-02T01:56:56;22.20;83.10
42097;DHT22;27754;45.414;11.084;2023-07-02T01:59:24;22.00;82.90
42097;DHT22;27754;45.414;11.084;2023-07-02T02:01:52;21.80;83.40
42097;DHT22;27754;45.414;11.084;2023-07-02T02:04:19;21.80;83.70
42097;DHT22;27754;45.414;11.084;2023-07-02T02:06:46;21.80;83.80
42097;DHT22;27754;45.414;11.084;2023-07-02T02:09:13;21.70;83.90
42097;DHT22;27754;45.414;11.084;2023-07-02T02:11:48;21.80;84.10
42097;DHT22;27754;45.414;11.084;2023-07-02T02:14:16;21.70;84.00
42097;DHT22;27754;45.414;11.084;2023-07-02T02:16:43;21.80;83.70
42097;DHT22;27754;45.414;11.084;2023-07-02T02:19:14;21.80;83.60
42097;DHT22;27754;45.414;11.084;2023-07-02T02:21:42;21.70;83.60
42097;DHT22;27754;45.414;11.084;2023-07-02T02:24:09;21.60;83.80
42097;DHT22;27754;45.414;11.084;2023-07-02T02:26:37;21.60;83.70
42097;DHT22;27754;45.414;11.084;2023-07-02T02:29:04;21.60;84.00
42097;DHT22;27754;45.414;11.084;2023-07-02T02:31:31;21.60;84.00
42097;DHT22;27754;45.414;11.084;2023-07-02T02:33:59;21.60;84.20
42097;DHT22;27754;45.414;11.084;2023-07-02T02:36:26;21.50;84.00
42097;DHT22;27754;45.414;11.084;2023-07-02T02:38:54;21.50;84.10
42097;DHT22;27754;45.414;11.084;2023-07-02T02:41:21;21.40;84.30
42097;DHT22;27754;45.414;11.084;2023-07-02T02:43:51;21.40;84.50
42097;DHT22;27754;45.414;11.084;2023-07-02T02:46:22;21.40;84.60
42097;DHT22;27754;45.414;11.084;2023-07-02T02:48:51;21.40;84.60
42097;DHT22;27754;45.414;11.084;2023-07-02T02:51:21;21.40;84.70
42097;DHT22;27754;45.414;11.084;2023-07-02T02:53:48;21.30;84.90
42097;DHT22;27754;45.414;11.084;2023-07-02T02:56:15;21.30;85.20
42097;DHT22;27754;45.414;11.084;2023-07-02T02:58:42;21.30;85.50
42097;DHT22;27754;45.414;11.084;2023-07-02T03:01:09;21.30;85.40
42097;DHT22;27754;45.414;11.084;2023-07-02T03:03:41;21.10;85.70
42097;DHT22;27754;45.414;11.084;2023-07-02T03:06:14;21.10;86.00
42097;DHT22;27754;45.414;11.084;2023-07-02T03:08:42;21.20;86.20
42097;DHT22;27754;45.414;11.084;2023-07-02T03:11:09;21.00;86.10
42097;DHT22;27754;45.414;11.084;2023-07-02T03:13:36;21.00;86.40
42097;DHT22;27754;45.414;11.084;2023-07-02T03:16:04;21.10;86.50
42097;DHT22;27754;45.414;11.084;2023-07-02T03:18:31;21.00;86.60
42097;DHT22;27754;45.414;11.084;2023-07-02T03:20:59;21.10;86.80
42097;DHT22;27754;45.414;11.084;2023-07-02T03:23:26;21.10;86.90
42097;DHT22;27754;45.414;11.084;2023-07-02T03:25:53;21.10;86.80
42097;DHT22;27754;45.414;11.084;2023-07-02T03:28:20;21.00;86.70
42097;DHT22;27754;45.414;11.084;2023-07-02T03:30:47;21.00;87.20
42097;DHT22;27754;45.414;11.084;2023-07-02T03:33:15;20.90;86.80
42097;DHT22;27754;45.414;11.084;2023-07-02T03:35:42;20.90;86.90
42097;DHT22;27754;45.414;11.084;2023-07-02T03:38:09;20.80;87.10
42097;DHT22;27754;45.414;11.084;2023-07-02T03:40:36;20.90;87.20
42097;DHT22;27754;45.414;11.084;2023-07-02T03:43:03;20.90;87.20
42097;DHT22;27754;45.414;11.084;2023-07-02T03:45:29;21.00;86.80
42097;DHT22;27754;45.414;11.084;2023-07-02T03:47:56;20.90;86.40
42097;DHT22;27754;45.414;11.084;2023-07-02T03:50:23;21.10;86.10
42097;DHT22;27754;45.414;11.084;2023-07-02T03:52:50;21.00;86.20
42097;DHT22;27754;45.414;11.084;2023-07-02T03:55:19;21.10;86.10
42097;DHT22;27754;45.414;11.084;2023-07-02T03:57:47;21.20;85.80
42097;DHT22;27754;45.414;11.084;2023-07-02T04:00:14;21.20;85.70
42097;DHT22;27754;45.414;11.084;2023-07-02T04:02:41;21.30;85.60
42097;DHT22;27754;45.414;11.084;2023-07-02T04:05:08;21.50;85.20
42097;DHT22;27754;45.414;11.084;2023-07-02T04:07:35;21.70;84.80
42097;DHT22;27754;45.414;11.084;2023-07-02T04:10:02;21.80;84.20
42097;DHT22;27754;45.414;11.084;2023-07-02T04:12:30;22.00;83.70
42097;DHT22;27754;45.414;11.084;2023-07-02T04:14:57;22.20;83.50
42097;DHT22;27754;45.414;11.084;2023-07-02T04:17:24;22.40;82.40
42097;DHT22;27754;45.414;11.084;2023-07-02T04:19:54;22.40;81.70
42097;DHT22;27754;45.414;11.084;2023-07-02T04:22:21;22.60;81.50
42097;DHT22;27754;45.414;11.084;2023-07-02T04:24:48;22.70;80.80
42097;DHT22;27754;45.414;11.084;2023-07-02T04:27:18;22.80;80.70
42097;DHT22;27754;45.414;11.084;2023-07-02T04:30:05;23.00;80.60
42097;DHT22;27754;45.414;11.084;2023-07-02T04:32:38;23.30;79.90
42097;DHT22;27754;45.414;11.084;2023-07-02T04:35:08;23.50;79.00
42097;DHT22;27754;45.414;11.084;2023-07-02T04:37:36;23.40;78.70
42097;DHT22;27754;45.414;11.084;2023-07-02T04:40:03;23.30;78.60
42097;DHT22;27754;45.414;11.084;2023-07-02T04:42:33;23.30;79.20
42097;DHT22;27754;45.414;11.084;2023-07-02T04:45:01;23.40;78.70
42097;DHT22;27754;45.414;11.084;2023-07-02T04:47:29;23.50;78.60
42097;DHT22;27754;45.414;11.084;2023-07-02T04:49:56;23.40;78.70
42097;DHT22;27754;45.414;11.084;2023-07-02T04:52:23;23.50;79.00
42097;DHT22;27754;45.414;11.084;2023-07-02T04:54:50;23.60;78.90
42097;DHT22;27754;45.414;11.084;2023-07-02T04:57:17;23.80;78.20
42097;DHT22;27754;45.414;11.084;2023-07-02T04:59:44;23.90;77.40
42097;DHT22;27754;45.414;11.084;2023-07-02T05:02:11;23.80;77.60
42097;DHT22;27754;45.414;11.084;2023-07-02T05:04:38;24.00;77.50
42097;DHT22;27754;45.414;11.084;2023-07-02T05:07:05;24.10;77.40
42097;DHT22;27754;45.414;11.084;2023-07-02T05:09:32;24.30;76.90
42097;DHT22;27754;45.414;11.084;2023-07-02T05:11:59;24.40;76.60
42097;DHT22;27754;45.414;11.084;2023-07-02T05:14:26;24.50;76.70
42097;DHT22;27754;45.414;11.084;2023-07-02T05:16:53;24.80;75.60
42097;DHT22;27754;45.414;11.084;2023-07-02T05:19:20;25.10;74.60
42097;DHT22;27754;45.414;11.084;2023-07-02T05:21:47;25.30;74.10
42097;DHT22;27754;45.414;11.084;2023-07-02T05:24:14;25.50;73.30
42097;DHT22;27754;45.414;11.084;2023-07-02T05:26:41;25.70;72.70
42097;DHT22;27754;45.414;11.084;2023-07-02T05:29:08;25.60;73.00
42097;DHT22;27754;45.414;11.084;2023-07-02T05:31:35;25.90;72.90
42097;DHT22;27754;45.414;11.084;2023-07-02T05:34:02;26.00;72.20
42097;DHT22;27754;45.414;11.084;2023-07-02T05:36:29;25.90;72.10
42097;DHT22;27754;45.414;11.084;2023-07-02T05:38:56;25.80;72.20
42097;DHT22;27754;45.414;11.084;2023-07-02T05:41:22;25.90;72.10
42097;DHT22;27754;45.414;11.084;2023-07-02T05:43:49;26.30;71.70
42097;DHT22;27754;45.414;11.084;2023-07-02T05:46:16;26.40;71.10
42097;DHT22;27754;45.414;11.084;2023-07-02T05:48:43;26.30;72.10
42097;DHT22;27754;45.414;11.084;2023-07-02T05:51:10;26.50;71.60
42097;DHT22;27754;45.414;11.084;2023-07-02T05:53:37;26.50;71.20
42097;DHT22;27754;45.414;11.084;2023-07-02T05:56:04;26.60;71.60
42097;DHT22;27754;45.414;11.084;2023-07-02T05:58:31;26.70;72.00
42097;DHT22;27754;45.414;11.084;2023-07-02T06:01:13;26.80;71.00
42097;DHT22;27754;45.414;11.084;2023-07-02T06:03:41;26.80;71.60
42097;DHT22;27754;45.414;11.084;2023-07-02T06:06:09;26.70;71.50
42097;DHT22;27754;45.414;11.084;2023-07-02T06:08:36;26.70;71.90
42097;DHT22;27754;45.414;11.084;2023-07-02T06:11:03;27.10;71.20
42097;DHT22;27754;45.414;11.084;2023-07-02T06:13:29;27.30;70.20
42097;DHT22;27754;45.414;11.084;2023-07-02T06:15:56;27.30;69.40
42097;DHT22;27754;45.414;11.084;2023-07-02T06:18:24;27.50;69.20
42097;DHT22;27754;45.414;11.084;2023-07-02T06:20:51;27.60;68.20
42097;DHT22;27754;45.414;11.084;2023-07-02T06:23:18;27.70;68.00
42097;DHT22;27754;45.414;11.084;2023-07-02T06:25:45;27.80;68.60
42097;DHT22;27754;45.414;11.084;2023-07-02T06:28:12;27.90;68.20
42097;DHT22;27754;45.414;11.084;2023-07-02T06:30:39;28.10;66.90
42097;DHT22;27754;45.414;11.084;2023-07-02T06:33:06;28.00;68.10
42097;DHT22;27754;45.414;11.084;2023-07-02T06:35:33;28.20;67.70
42097;DHT22;27754;45.414;11.084;2023-07-02T06:38:00;28.40;66.00
42097;DHT22;27754;45.414;11.084;2023-07-02T06:40:27;28.40;65.60
42097;DHT22;27754;45.414;11.084;2023-07-02T06:42:54;28.40;65.80
42097;DHT22;27754;45.414;11.084;2023-07-02T06:45:21;28.60;64.80
42097;DHT22;27754;45.414;11.084;2023-07-02T06:47:48;28.30;65.50
42097;DHT22;27754;45.414;11.084;2023-07-02T06:50:15;28.30;66.20
42097;DHT22;27754;45.414;11.084;2023-07-02T06:52:42;28.10;65.90
42097;DHT22;27754;45.414;11.084;2023-07-02T06:55:09;28.10;66.80
42097;DHT22;27754;45.414;11.084;2023-07-02T06:57:42;28.10;66.30
42097;DHT22;27754;45.414;11.084;2023-07-02T07:00:10;27.60;67.60
42097;DHT22;27754;45.414;11.084;2023-07-02T07:02:37;27.20;68.20
42097;DHT22;27754;45.414;11.084;2023-07-02T07:05:05;26.90;69.40
42097;DHT22;27754;45.414;11.084;2023-07-02T07:07:32;27.10;69.60
42097;DHT22;27754;45.414;11.084;2023-07-02T07:09:59;26.90;69.40
42097;DHT22;27754;45.414;11.084;2023-07-02T07:12:26;26.80;70.40
42097;DHT22;27754;45.414;11.084;2023-07-02T07:14:53;26.80;70.60
42097;DHT22;27754;45.414;11.084;2023-07-02T07:17:20;27.00;70.50
42097;DHT22;27754;45.414;11.084;2023-07-02T07:19:47;26.80;70.40
42097;DHT22;27754;45.414;11.084;2023-07-02T07:22:14;26.70;71.60
42097;DHT22;27754;45.414;11.084;2023-07-02T07:24:41;26.70;70.90
42097;DHT22;27754;45.414;11.084;2023-07-02T07:27:09;27.00;70.30
42097;DHT22;27754;45.414;11.084;2023-07-02T07:29:36;27.50;69.40
42097;DHT22;27754;45.414;11.084;2023-07-02T07:32:04;27.80;68.20
42097;DHT22;27754;45.414;11.084;2023-07-02T07:34:31;27.80;67.80
42097;DHT22;27754;45.414;11.084;2023-07-02T07:36:58;27.70;67.80
42097;DHT22;27754;45.414;11.084;2023-07-02T07:39:25;27.60;68.70
42097;DHT22;27754;45.414;11.084;2023-07-02T07:41:52;27.60;69.20
42097;DHT22;27754;45.414;11.084;2023-07-02T07:44:19;27.80;69.10
42097;DHT22;27754;45.414;11.084;2023-07-02T07:46:46;28.00;67.00
42097;DHT22;27754;45.414;11.084;2023-07-02T07:49:13;27.70;68.20
42097;DHT22;27754;45.414;11.084;2023-07-02T07:51:40;27.80;67.80
42097;DHT22;27754;45.414;11.084;2023-07-02T07:54:07;28.10;67.70
42097;DHT22;27754;45.414;11.084;2023-07-02T07:56:34;28.30;67.40
42097;DHT22;27754;45.414;11.084;2023-07-02T07:59:01;28.30;66.70
42097;DHT22;27754;45.414;11.084;2023-07-02T08:01:29;28.30;66.60
42097;DHT22;27754;45.414;11.084;2023-07-02T08:03:56;28.50;66.30
42097;DHT22;27754;45.414;11.084;2023-07-02T08:06:23;29.10;65.00
42097;DHT22;27754;45.414;11.084;2023-07-02T08:08:50;29.50;63.90
42097;DHT22;27754;45.414;11.084;2023-07-02T08:11:17;29.50;63.10
42097;DHT22;27754;45.414;11.084;2023-07-02T08:13:44;29.40;62.90
42097;DHT22;27754;45.414;11.084;2023-07-02T08:16:11;29.50;63.50
42097;DHT22;27754;45.414;11.084;2023-07-02T08:18:38;29.50;63.50
42097;DHT22;27754;45.414;11.084;2023-07-02T08:21:05;29.60;62.30
42097;DHT22;27754;45.414;11.084;2023-07-02T08:23:33;29.30;63.70
42097;DHT22;27754;45.414;11.084;2023-07-02T08:26:01;30.00;62.00
42097;DHT22;27754;45.414;11.084;2023-07-02T08:28:28;30.00;61.50
42097;DHT22;27754;45.414;11.084;2023-07-02T08:30:55;29.30;64.10
42097;DHT22;27754;45.414;11.084;2023-07-02T08:33:23;29.20;64.70
42097;DHT22;27754;45.414;11.084;2023-07-02T08:35:50;29.00;64.50
42097;DHT22;27754;45.414;11.084;2023-07-02T08:38:16;29.10;64.10
42097;DHT22;27754;45.414;11.084;2023-07-02T08:40:44;29.30;63.90
42097;DHT22;27754;45.414;11.084;2023-07-02T08:43:11;29.20;63.60
42097;DHT22;27754;45.414;11.084;2023-07-02T08:45:40;29.30;64.30
42097;DHT22;27754;45.414;11.084;2023-07-02T08:48:08;29.80;62.50
42097;DHT22;27754;45.414;11.084;2023-07-02T08:50:37;30.30;61.50
42097;DHT22;27754;45.414;11.084;2023-07-02T08:53:04;30.50;61.70
42097;DHT22;27754;45.414;11.084;2023-07-02T08:55:31;30.70;60.80
42097;DHT22;27754;45.414;11.084;2023-07-02T08:57:58;30.10;61.80
42097;DHT22;27754;45.414;11.084;2023-07-02T09:00:26;30.40;61.50
42097;DHT22;27754;45.414;11.084;2023-07-02T09:02:53;30.30;61.60
42097;DHT22;27754;45.414;11.084;2023-07-02T09:05:20;30.70;61.30
42097;DHT22;27754;45.414;11.084;2023-07-02T09:07:49;31.20;61.10
42097;DHT22;27754;45.414;11.084;2023-07-02T09:10:30;31.60;58.40
42097;DHT22;27754;45.414;11.084;2023-07-02T09:13:07;31.40;59.50
42097;DHT22;27754;45.414;11.084;2023-07-02T09:15:38;31.60;59.40
42097;DHT22;27754;45.414;11.084;2023-07-02T09:18:20;31.10;60.00
42097;DHT22;27754;45.414;11.084;2023-07-02T09:20:50;31.30;60.60
42097;DHT22;27754;45.414;11.084;2023-07-02T09:23:18;31.60;58.80
42097;DHT22;27754;45.414;11.084;2023-07-02T09:25:45;31.60;59.90
42097;DHT22;27754;45.414;11.084;2023-07-02T09:28:19;31.70;58.30
42097;DHT22;27754;45.414;11.084;2023-07-02T09:30:55;31.70;57.30
42097;DHT22;27754;45.414;11.084;2023-07-02T09:33:27;31.80;58.30
42097;DHT22;27754;45.414;11.084;2023-07-02T09:35:55;31.30;58.50
42097;DHT22;27754;45.414;11.084;2023-07-02T09:38:22;31.60;58.10
42097;DHT22;27754;45.414;11.084;2023-07-02T09:40:51;31.50;57.20
42097;DHT22;27754;45.414;11.084;2023-07-02T09:43:20;30.80;59.40
42097;DHT22;27754;45.414;11.084;2023-07-02T09:45:50;30.70;60.90
42097;DHT22;27754;45.414;11.084;2023-07-02T09:48:18;30.20;61.30
42097;DHT22;27754;45.414;11.084;2023-07-02T09:50:48;30.00;62.70
42097;DHT22;27754;45.414;11.084;2023-07-02T09:53:16;30.70;61.40
42097;DHT22;27754;45.414;11.084;2023-07-02T09:55:43;31.20;61.20
42097;DHT22;27754;45.414;11.084;2023-07-02T09:58:10;31.50;59.90
42097;DHT22;27754;45.414;11.084;2023-07-02T10:00:42;32.00;59.10
42097;DHT22;27754;45.414;11.084;2023-07-02T10:03:09;31.80;59.00
42097;DHT22;27754;45.414;11.084;2023-07-02T10:05:36;32.20;58.10
42097;DHT22;27754;45.414;11.084;2023-07-02T10:08:16;31.90;58.70
42097;DHT22;27754;45.414;11.084;2023-07-02T10:10:48;32.30;57.30
42097;DHT22;27754;45.414;11.084;2023-07-02T10:13:27;31.90;58.30
42097;DHT22;27754;45.414;11.084;2023-07-02T10:16:01;32.10;57.90
42097;DHT22;27754;45.414;11.084;2023-07-02T10:18:28;31.60;58.10
42097;DHT22;27754;45.414;11.084;2023-07-02T10:20:55;31.30;59.70
42097;DHT22;27754;45.414;11.084;2023-07-02T10:23:33;31.60;58.10
42097;DHT22;27754;45.414;11.084;2023-07-02T10:26:18;31.70;57.30
42097;DHT22;27754;45.414;11.084;2023-07-02T10:29:00;31.90;57.50
42097;DHT22;27754;45.414;11.084;2023-07-02T10:31:28;31.40;59.00
42097;DHT22;27754;45.414;11.084;2023-07-02T10:33:55;31.60;57.80
42097;DHT22;27754;45.414;11.084;2023-07-02T10:36:23;31.60;57.80
42097;DHT22;27754;45.414;11.084;2023-07-02T10:38:51;31.60;58.00
42097;DHT22;27754;45.414;11.084;2023-07-02T10:41:27;30.90;59.70
42097;DHT22;27754;45.414;11.084;2023-07-02T10:44:04;31.30;58.90
42097;DHT22;27754;45.414;11.084;2023-07-02T10:46:31;31.70;58.00
42097;DHT22;27754;45.414;11.084;2023-07-02T10:48:58;31.30;57.80
42097;DHT22;27754;45.414;11.084;2023-07-02T10:51:25;31.50;58.00
42097;DHT22;27754;45.414;11.084;2023-07-02T10:54:02;31.60;57.60
42097;DHT22;27754;45.414;11.084;2023-07-02T10:56:31;31.70;56.30
42097;DHT22;27754;45.414;11.084;2023-07-02T10:58:59;31.10;58.30
42097;DHT22;27754;45.414;11.084;2023-07-02T11:01:30;31.30;57.40
42097;DHT22;27754;45.414;11.084;2023-07-02T11:06:26;31.80;55.70
42097;DHT22;27754;45.414;11.084;2023-07-02T11:08:54;31.80;56.60
42097;DHT22;27754;45.414;11.084;2023-07-02T11:11:22;31.90;57.00
42097;DHT22;27754;45.414;11.084;2023-07-02T11:13:51;32.00;56.40
42097;DHT22;27754;45.414;11.084;2023-07-02T11:16:24;32.10;56.40
42097;DHT22;27754;45.414;11.084;2023-07-02T11:18:54;32.20;56.30
42097;DHT22;27754;45.414;11.084;2023-07-02T11:21:32;32.40;54.90
42097;DHT22;27754;45.414;11.084;2023-07-02T11:24:08;32.50;54.80
42097;DHT22;27754;45.414;11.084;2023-07-02T11:26:40;32.30;55.40
42097;DHT22;27754;45.414;11.084;2023-07-02T11:29:10;32.10;55.90
42097;DHT22;27754;45.414;11.084;2023-07-02T11:31:37;31.60;56.60
42097;DHT22;27754;45.414;11.084;2023-07-02T11:34:15;31.60;56.30
42097;DHT22;27754;45.414;11.084;2023-07-02T11:36:45;31.50;56.40
42097;DHT22;27754;45.414;11.084;2023-07-02T11:39:13;31.70;55.90
42097;DHT22;27754;45.414;11.084;2023-07-02T11:41:45;31.90;56.60
42097;DHT22;27754;45.414;11.084;2023-07-02T11:44:14;32.30;54.30
42097;DHT22;27754;45.414;11.084;2023-07-02T11:46:42;32.10;53.40
42097;DHT22;27754;45.414;11.084;2023-07-02T11:49:09;32.10;55.40
42097;DHT22;27754;45.414;11.084;2023-07-02T11:51:38;32.50;54.10
42097;DHT22;27754;45.414;11.084;2023-07-02T11:54:05;32.30;53.20
42097;DHT22;27754;45.414;11.084;2023-07-02T11:56:33;32.20;54.20
42097;DHT22;27754;45.414;11.084;2023-07-02T11:59:00;32.40;54.10
42097;DHT22;27754;45.414;11.084;2023-07-02T12:01:31;32.20;53.70
42097;DHT22;27754;45.414;11.084;2023-07-02T12:03:58;31.90;54.50
42097;DHT22;27754;45.414;11.084;2023-07-02T12:06:25;32.00;54.40
42097;DHT22;27754;45.414;11.084;2023-07-02T12:08:52;32.20;55.60
42097;DHT22;27754;45.414;11.084;2023-07-02T12:11:19;32.50;55.20
42097;DHT22;27754;45.414;11.084;2023-07-02T12:13:45;32.60;54.30
42097;DHT22;27754;45.414;11.084;2023-07-02T12:16:12;32.50;54.70
42097;DHT22;27754;45.414;11.084;2023-07-02T12:18:39;32.60;54.20
42097;DHT22;27754;45.414;11.084;2023-07-02T12:21:06;32.40;54.30
42097;DHT22;27754;45.414;11.084;2023-07-02T12:23:33;32.50;54.60
42097;DHT22;27754;45.414;11.084;2023-07-02T12:26:00;32.60;53.80
42097;DHT22;27754;45.414;11.084;2023-07-02T12:28:27;32.30;54.50
42097;DHT22;27754;45.414;11.084;2023-07-02T12:30:54;32.40;53.90
42097;DHT22;27754;45.414;11.084;2023-07-02T12:33:21;32.70;53.00
42097;DHT22;27754;45.414;11.084;2023-07-02T12:35:48;32.80;52.30
42097;DHT22;27754;45.414;11.084;2023-07-02T12:38:16;32.90;52.60
42097;DHT22;27754;45.414;11.084;2023-07-02T12:40:43;33.00;52.90
42097;DHT22;27754;45.414;11.084;2023-07-02T12:43:09;33.20;52.60
42097;DHT22;27754;45.414;11.084;2023-07-02T12:45:36;33.10;53.00
42097;DHT22;27754;45.414;11.084;2023-07-02T12:48:04;33.10;52.70
42097;DHT22;27754;45.414;11.084;2023-07-02T12:50:31;33.20;52.00
42097;DHT22;27754;45.414;11.084;2023-07-02T12:52:58;33.20;52.30
42097;DHT22;27754;45.414;11.084;2023-07-02T12:55:25;33.20;50.90
42097;DHT22;27754;45.414;11.084;2023-07-02T12:57:52;32.80;52.90
42097;DHT22;27754;45.414;11.084;2023-07-02T13:00:19;33.00;52.30
42097;DHT22;27754;45.414;11.084;2023-07-02T13:02:48;32.70;53.20
42097;DHT22;27754;45.414;11.084;2023-07-02T13:05:29;32.60;52.80
42097;DHT22;27754;45.414;11.084;2023-07-02T13:07:57;32.50;53.10
42097;DHT22;27754;45.414;11.084;2023-07-02T13:10:24;32.40;53.80
42097;DHT22;27754;45.414;11.084;2023-07-02T13:12:51;32.70;53.70
42097;DHT22;27754;45.414;11.084;2023-07-02T13:15:18;32.90;51.80
42097;DHT22;27754;45.414;11.084;2023-07-02T13:17:46;32.90;50.80
42097;DHT22;27754;45.414;11.084;2023-07-02T13:20:13;33.20;50.60
42097;DHT22;27754;45.414;11.084;2023-07-02T13:22:40;33.40;50.20
42097;DHT22;27754;45.414;11.084;2023-07-02T13:25:07;33.00;49.80
42097;DHT22;27754;45.414;11.084;2023-07-02T13:27:34;33.30;50.30
42097;DHT22;27754;45.414;11.084;2023-07-02T13:30:02;33.20;50.40
42097;DHT22;27754;45.414;11.084;2023-07-02T13:32:29;32.90;51.10
42097;DHT22;27754;45.414;11.084;2023-07-02T13:34:58;32.50;51.30
42097;DHT22;27754;45.414;11.084;2023-07-02T13:37:25;32.30;52.30
42097;DHT22;27754;45.414;11.084;2023-07-02T13:39:53;32.30;51.80
42097;DHT22;27754;45.414;11.084;2023-07-02T13:42:20;32.30;52.00
42097;DHT22;27754;45.414;11.084;2023-07-02T13:44:47;32.30;52.30
42097;DHT22;27754;45.414;11.084;2023-07-02T13:47:14;32.30;52.50
42097;DHT22;27754;45.414;11.084;2023-07-02T13:49:41;32.30;52.00
42097;DHT22;27754;45.414;11.084;2023-07-02T13:52:08;32.50;50.90
42097;DHT22;27754;45.414;11.084;2023-07-02T13:54:35;32.40;51.00
42097;DHT22;27754;45.414;11.084;2023-07-02T13:57:03;32.30;51.40
42097;DHT22;27754;45.414;11.084;2023-07-02T13:59:31;32.60;51.40
42097;DHT22;27754;45.414;11.084;2023-07-02T14:01:58;32.60;51.80
42097;DHT22;27754;45.414;11.084;2023-07-02T14:04:25;32.70;52.10
42097;DHT22;27754;45.414;11.084;2023-07-02T14:06:52;32.90;51.70
42097;DHT22;27754;45.414;11.084;2023-07-02T14:09:20;32.90;51.00
42097;DHT22;27754;45.414;11.084;2023-07-02T14:11:47;33.30;50.60
42097;DHT22;27754;45.414;11.084;2023-07-02T14:14:14;33.40;50.10
42097;DHT22;27754;45.414;11.084;2023-07-02T14:16:41;33.40;50.00
42097;DHT22;27754;45.414;11.084;2023-07-02T14:19:08;33.30;50.50
42097;DHT22;27754;45.414;11.084;2023-07-02T14:21:35;33.40;50.10
42097;DHT22;27754;45.414;11.084;2023-07-02T14:24:02;33.30;51.00
42097;DHT22;27754;45.414;11.084;2023-07-02T14:26:30;33.40;51.00
42097;DHT22;27754;45.414;11.084;2023-07-02T14:28:57;33.30;50.40
42097;DHT22;27754;45.414;11.084;2023-07-02T14:31:24;33.30;49.40
42097;DHT22;27754;45.414;11.084;2023-07-02T14:33:51;33.30;50.00
42097;DHT22;27754;45.414;11.084;2023-07-02T14:36:20;33.30;50.10
42097;DHT22;27754;45.414;11.084;2023-07-02T14:38:47;33.30;50.10
42097;DHT22;27754;45.414;11.084;2023-07-02T14:41:14;33.10;50.50
42097;DHT22;27754;45.414;11.084;2023-07-02T14:43:41;33.00;51.00
42097;DHT22;27754;45.414;11.084;2023-07-02T14:46:08;32.90;50.00
42097;DHT22;27754;45.414;11.084;2023-07-02T14:48:35;32.80;51.40
42097;DHT22;27754;45.414;11.084;2023-07-02T14:51:03;32.70;50.70
42097;DHT22;27754;45.414;11.084;2023-07-02T14:53:31;32.40;51.70
42097;DHT22;27754;45.414;11.084;2023-07-02T14:56:01;32.10;51.70
42097;DHT22;27754;45.414;11.084;2023-07-02T14:58:30;31.60;53.00
42097;DHT22;27754;45.414;11.084;2023-07-02T15:00:58;31.60;53.00
42097;DHT22;27754;45.414;11.084;2023-07-02T15:03:26;31.50;53.10
42097;DHT22;27754;45.414;11.084;2023-07-02T15:05:54;31.40;53.80
42097;DHT22;27754;45.414;11.084;2023-07-02T15:08:21;31.40;54.50
42097;DHT22;27754;45.414;11.084;2023-07-02T15:10:51;31.40;54.10
42097;DHT22;27754;45.414;11.084;2023-07-02T15:13:19;31.50;53.20
42097;DHT22;27754;45.414;11.084;2023-07-02T15:15:50;31.40;53.30
42097;DHT22;27754;45.414;11.084;2023-07-02T15:18:17;31.30;54.10
42097;DHT22;27754;45.414;11.084;2023-07-02T15:20:49;31.30;53.30
42097;DHT22;27754;45.414;11.084;2023-07-02T15:23:18;31.30;52.90
42097;DHT22;27754;45.414;11.084;2023-07-02T15:25:52;31.20;53.50